sensor_id;sensor_type;location;lat;lon;timestamp;pressure;altitude;pressure_sealevel;temperature;humidity
74422;BME280;62856;51.446;8.360;2022-11-20T00:01:59;97450.84;;;1.58;58.10
74422;BME280;62856;51.446;8.360;2022-11-20T00:04:24;97447.31;;;1.69;58.46
74422;BME280;62856;51.446;8.360;2022-11-20T00:06:49;97440.13;;;1.20;56.38
74422;BME280;62856;51.446;8.360;2022-11-20T00:09:15;97436.84;;;1.01;57.76
74422;BME280;62856;51.446;8.360;2022-11-20T00:11:40;97428.94;;;0.89;57.60
74422;BME280;62856;51.446;8.360;2022-11-20T00:14:05;97435.91;;;1.07;58.11
74422;BME280;62856;51.446;8.360;2022-11-20T00:16:32;97430.63;;;1.24;58.18
74422;BME280;62856;51.446;8.360;2022-11-20T00:18:57;97435.16;;;1.40;57.81
74422;BME280;62856;51.446;8.360;2022-11-20T00:21:25;97433.78;;;1.37;56.57
74422;BME280;62856;51.446;8.360;2022-11-20T00:23:52;97434.31;;;1.23;57.63
74422;BME280;62856;51.446;8.360;2022-11-20T00:26:19;97439.13;;;1.26;56.63
74422;BME280;62856;51.446;8.360;2022-11-20T00:28:50;97427.25;;;1.28;57.58
74422;BME280;62856;51.446;8.360;2022-11-20T00:31:16;97422.81;;;1.17;56.35
74422;BME280;62856;51.446;8.360;2022-11-20T00:33:43;97426.63;;;0.65;57.36
74422;BME280;62856;51.446;8.360;2022-11-20T00:36:14;97421.09;;;0.94;58.45
74422;BME280;62856;51.446;8.360;2022-11-20T00:38:40;97430.13;;;1.10;58.12
74422;BME280;62856;51.446;8.360;2022-11-20T00:41:08;97425.66;;;1.27;57.87
74422;BME280;62856;51.446;8.360;2022-11-20T00:43:33;97432.50;;;1.40;57.56
74422;BME280;62856;51.446;8.360;2022-11-20T00:46:00;97423.88;;;1.33;56.67
74422;BME280;62856;51.446;8.360;2022-11-20T00:48:26;97426.56;;;1.04;56.58
74422;BME280;62856;51.446;8.360;2022-11-20T00:50:52;97434.81;;;0.63;57.07
74422;BME280;62856;51.446;8.360;2022-11-20T00:53:18;97430.00;;;0.88;57.84
74422;BME280;62856;51.446;8.360;2022-11-20T00:55:55;97433.00;;;1.09;57.71
74422;BME280;62856;51.446;8.360;2022-11-20T00:58:22;97430.63;;;1.24;57.75
74422;BME280;62856;51.446;8.360;2022-11-20T01:00:47;97426.63;;;1.38;57.18
74422;BME280;62856;51.446;8.360;2022-11-20T01:03:14;97426.13;;;1.41;56.95
74422;BME280;62856;51.446;8.360;2022-11-20T01:05:39;97429.41;;;1.31;56.07
74422;BME280;62856;51.446;8.360;2022-11-20T01:08:05;97437.38;;;1.31;56.21
74422;BME280;62856;51.446;8.360;2022-11-20T01:10:30;97429.84;;;0.95;55.63
74422;BME280;62856;51.446;8.360;2022-11-20T01:12:55;97435.22;;;0.83;56.72
74422;BME280;62856;51.446;8.360;2022-11-20T01:15:39;97438.78;;;1.05;57.88
74422;BME280;62856;51.446;8.360;2022-11-20T01:18:05;97431.38;;;1.08;57.39
74422;BME280;62856;51.446;8.360;2022-11-20T01:20:34;97413.25;;;1.16;57.02
74422;BME280;62856;51.446;8.360;2022-11-20T01:22:59;97429.94;;;1.17;56.38
74422;BME280;62856;51.446;8.360;2022-11-20T01:25:25;97425.97;;;1.31;56.78
74422;BME280;62856;51.446;8.360;2022-11-20T01:27:50;97433.78;;;1.37;56.70
74422;BME280;62856;51.446;8.360;2022-11-20T01:30:15;97436.91;;;1.34;56.36
74422;BME280;62856;51.446;8.360;2022-11-20T01:32:40;97427.56;;;1.32;55.69
74422;BME280;62856;51.446;8.360;2022-11-20T01:35:06;97443.34;;;1.22;56.14
74422;BME280;62856;51.446;8.360;2022-11-20T01:37:31;97436.06;;;1.17;56.57
74422;BME280;62856;51.446;8.360;2022-11-20T01:39:56;97439.53;;;1.18;56.50
74422;BME280;62856;51.446;8.360;2022-11-20T01:42:21;97435.44;;;1.10;56.59
74422;BME280;62856;51.446;8.360;2022-11-20T01:48:08;97431.38;;;1.08;56.36
74422;BME280;62856;51.446;8.360;2022-11-20T01:50:34;97425.94;;;1.14;56.49
74422;BME280;62856;51.446;8.360;2022-11-20T01:53:03;97430.94;;;1.11;55.83
74422;BME280;62856;51.446;8.360;2022-11-20T01:55:32;97426.19;;;1.13;56.53
74422;BME280;62856;51.446;8.360;2022-11-20T01:58:00;97431.03;;;0.87;56.39
74422;BME280;62856;51.446;8.360;2022-11-20T02:00:26;97430.81;;;0.89;56.74
74422;BME280;62856;51.446;8.360;2022-11-20T02:02:57;97431.09;;;0.36;57.92
74422;BME280;62856;51.446;8.360;2022-11-20T02:05:27;97424.38;;;0.45;58.57
74422;BME280;62856;51.446;8.360;2022-11-20T02:07:56;97436.88;;;0.22;59.71
74422;BME280;62856;51.446;8.360;2022-11-20T02:10:23;97429.28;;;0.25;59.94
74422;BME280;62856;51.446;8.360;2022-11-20T02:12:48;97421.00;;;0.50;59.31
74422;BME280;62856;51.446;8.360;2022-11-20T02:15:33;97424.34;;;0.57;58.10
74422;BME280;62856;51.446;8.360;2022-11-20T02:17:58;97419.56;;;0.70;58.13
74422;BME280;62856;51.446;8.360;2022-11-20T02:20:24;97411.22;;;0.50;57.51
74422;BME280;62856;51.446;8.360;2022-11-20T02:23:12;97417.84;;;0.36;59.27
74422;BME280;62856;51.446;8.360;2022-11-20T02:25:39;97409.38;;;0.51;58.56
74422;BME280;62856;51.446;8.360;2022-11-20T02:28:05;97413.44;;;0.70;58.19
74422;BME280;62856;51.446;8.360;2022-11-20T02:30:30;97405.69;;;0.80;58.13
74422;BME280;62856;51.446;8.360;2022-11-20T02:32:57;97403.13;;;0.85;57.66
74422;BME280;62856;51.446;8.360;2022-11-20T02:37:51;97406.16;;;1.05;56.65
74422;BME280;62856;51.446;8.360;2022-11-20T02:40:18;97401.22;;;0.97;56.79
74422;BME280;62856;51.446;8.360;2022-11-20T02:42:44;97393.22;;;0.80;56.82
74422;BME280;62856;51.446;8.360;2022-11-20T02:45:10;97394.81;;;0.65;58.77
74422;BME280;62856;51.446;8.360;2022-11-20T02:47:35;97395.88;;;0.80;57.58
74422;BME280;62856;51.446;8.360;2022-11-20T02:50:01;97374.41;;;0.82;57.74
74422;BME280;62856;51.446;8.360;2022-11-20T02:52:26;97384.59;;;1.01;57.38
74422;BME280;62856;51.446;8.360;2022-11-20T02:54:51;97380.50;;;1.11;57.04
74422;BME280;62856;51.446;8.360;2022-11-20T02:57:17;97374.22;;;1.17;56.83
74422;BME280;62856;51.446;8.360;2022-11-20T02:59:42;97371.25;;;1.13;56.38
74422;BME280;62856;51.446;8.360;2022-11-20T03:02:07;97376.38;;;0.86;56.58
74422;BME280;62856;51.446;8.360;2022-11-20T03:04:33;97374.28;;;0.60;57.48
74422;BME280;62856;51.446;8.360;2022-11-20T03:06:58;97367.50;;;0.53;58.18
74422;BME280;62856;51.446;8.360;2022-11-20T03:09:23;97347.38;;;0.40;58.86
74422;BME280;62856;51.446;8.360;2022-11-20T03:11:48;97371.59;;;0.72;58.15
74422;BME280;62856;51.446;8.360;2022-11-20T03:14:14;97372.66;;;0.87;58.01
74422;BME280;62856;51.446;8.360;2022-11-20T03:16:39;97366.28;;;1.00;57.27
74422;BME280;62856;51.446;8.360;2022-11-20T03:19:05;97376.47;;;1.08;57.36
74422;BME280;62856;51.446;8.360;2022-11-20T03:21:33;97375.97;;;1.11;56.85
74422;BME280;62856;51.446;8.360;2022-11-20T03:23:58;97370.41;;;0.79;57.10
74422;BME280;62856;51.446;8.360;2022-11-20T03:26:25;97362.13;;;0.08;58.38
74422;BME280;62856;51.446;8.360;2022-11-20T03:28:52;97377.34;;;-0.11;59.63
74422;BME280;62856;51.446;8.360;2022-11-20T03:31:24;97379.41;;;0.11;59.91
74422;BME280;62856;51.446;8.360;2022-11-20T03:33:50;97380.25;;;0.39;59.12
74422;BME280;62856;51.446;8.360;2022-11-20T03:36:17;97380.06;;;0.57;58.69
74422;BME280;62856;51.446;8.360;2022-11-20T03:38:43;97371.19;;;0.63;58.32
74422;BME280;62856;51.446;8.360;2022-11-20T03:41:11;97372.16;;;0.74;58.18
74422;BME280;62856;51.446;8.360;2022-11-20T03:43:37;97376.84;;;0.83;57.73
74422;BME280;62856;51.446;8.360;2022-11-20T03:46:03;97371.22;;;0.80;57.95
74422;BME280;62856;51.446;8.360;2022-11-20T03:48:28;97379.97;;;0.80;57.87
74422;BME280;62856;51.446;8.360;2022-11-20T03:51:16;97379.59;;;0.88;57.72
74422;BME280;62856;51.446;8.360;2022-11-20T03:53:43;97374.13;;;0.95;57.50
74422;BME280;62856;51.446;8.360;2022-11-20T03:56:09;97376.00;;;0.94;57.87
74422;BME280;62856;51.446;8.360;2022-11-20T03:58:36;97368.09;;;0.83;57.79
74422;BME280;62856;51.446;8.360;2022-11-20T04:01:11;97358.84;;;0.85;59.14
74422;BME280;62856;51.446;8.360;2022-11-20T04:03:37;97360.13;;;0.83;58.09
74422;BME280;62856;51.446;8.360;2022-11-20T04:06:08;97368.03;;;0.94;57.94
74422;BME280;62856;51.446;8.360;2022-11-20T04:08:34;97355.41;;;1.01;57.49
74422;BME280;62856;51.446;8.360;2022-11-20T04:13:38;97360.88;;;1.12;57.70
74422;BME280;62856;51.446;8.360;2022-11-20T04:16:05;97361.44;;;1.14;57.36
74422;BME280;62856;51.446;8.360;2022-11-20T04:18:30;97367.06;;;1.17;57.42
74422;BME280;62856;51.446;8.360;2022-11-20T04:20:57;97376.88;;;1.17;57.74
74422;BME280;62856;51.446;8.360;2022-11-20T04:23:22;97374.78;;;1.19;57.54
74422;BME280;62856;51.446;8.360;2022-11-20T04:25:47;97370.63;;;1.23;57.40
74422;BME280;62856;51.446;8.360;2022-11-20T04:28:13;97372.13;;;1.19;57.71
74422;BME280;62856;51.446;8.360;2022-11-20T04:30:38;97374.13;;;1.12;57.13
74422;BME280;62856;51.446;8.360;2022-11-20T04:33:03;97377.38;;;1.14;57.57
74422;BME280;62856;51.446;8.360;2022-11-20T04:35:28;97374.38;;;1.10;57.78
74422;BME280;62856;51.446;8.360;2022-11-20T04:37:54;97368.19;;;1.04;57.75
74422;BME280;62856;51.446;8.360;2022-11-20T04:40:19;97368.19;;;1.04;58.05
74422;BME280;62856;51.446;8.360;2022-11-20T04:42:44;97362.19;;;1.09;58.14
74422;BME280;62856;51.446;8.360;2022-11-20T04:45:09;97364.59;;;1.11;57.67
74422;BME280;62856;51.446;8.360;2022-11-20T04:47:35;97365.47;;;1.16;57.95
74422;BME280;62856;51.446;8.360;2022-11-20T04:50:00;97351.16;;;1.17;57.92
74422;BME280;62856;51.446;8.360;2022-11-20T04:52:25;97362.91;;;1.21;57.70
74422;BME280;62856;51.446;8.360;2022-11-20T04:54:51;97363.47;;;1.23;57.32
74422;BME280;62856;51.446;8.360;2022-11-20T04:57:18;97355.44;;;1.18;58.17
74422;BME280;62856;51.446;8.360;2022-11-20T04:59:43;97351.38;;;1.16;58.17
74422;BME280;62856;51.446;8.360;2022-11-20T05:02:09;97360.16;;;1.16;57.94
74422;BME280;62856;51.446;8.360;2022-11-20T05:04:34;97363.03;;;1.15;58.81
74422;BME280;62856;51.446;8.360;2022-11-20T05:06:59;97361.50;;;1.02;59.86
74422;BME280;62856;51.446;8.360;2022-11-20T05:09:25;97363.63;;;0.72;63.05
74422;BME280;62856;51.446;8.360;2022-11-20T05:11:50;97358.97;;;0.34;64.09
74422;BME280;62856;51.446;8.360;2022-11-20T05:14:15;97359.56;;;0.13;65.65
74422;BME280;62856;51.446;8.360;2022-11-20T05:16:41;97355.00;;;0.09;65.36
74422;BME280;62856;51.446;8.360;2022-11-20T05:19:06;97353.69;;;0.23;64.51
74422;BME280;62856;51.446;8.360;2022-11-20T05:21:32;97350.09;;;-0.11;68.82
74422;BME280;62856;51.446;8.360;2022-11-20T05:23:57;97349.03;;;-0.22;72.53
74422;BME280;62856;51.446;8.360;2022-11-20T05:26:22;97356.31;;;-0.17;71.72
74422;BME280;62856;51.446;8.360;2022-11-20T05:28:48;97348.47;;;-0.24;72.77
74422;BME280;62856;51.446;8.360;2022-11-20T05:31:17;97352.41;;;-0.26;72.66
74422;BME280;62856;51.446;8.360;2022-11-20T05:33:43;97327.91;;;-0.33;75.02
74422;BME280;62856;51.446;8.360;2022-11-20T05:36:10;97338.25;;;-0.20;75.81
74422;BME280;62856;51.446;8.360;2022-11-20T05:38:36;97337.97;;;-0.07;73.43
74422;BME280;62856;51.446;8.360;2022-11-20T05:41:16;97336.56;;;0.02;73.63
74422;BME280;62856;51.446;8.360;2022-11-20T05:43:43;97321.81;;;0.06;74.75
74422;BME280;62856;51.446;8.360;2022-11-20T05:46:11;97334.25;;;0.06;75.30
74422;BME280;62856;51.446;8.360;2022-11-20T05:48:37;97339.63;;;0.22;72.43
74422;BME280;62856;51.446;8.360;2022-11-20T05:51:04;97343.84;;;0.35;72.01
74422;BME280;62856;51.446;8.360;2022-11-20T05:53:32;97343.31;;;0.49;70.53
74422;BME280;62856;51.446;8.360;2022-11-20T05:56:08;97346.75;;;0.61;69.24
74422;BME280;62856;51.446;8.360;2022-11-20T05:58:35;97345.31;;;0.70;69.63
74422;BME280;62856;51.446;8.360;2022-11-20T06:01:21;97345.47;;;0.80;68.18
74422;BME280;62856;51.446;8.360;2022-11-20T06:03:47;97349.03;;;0.86;67.45
74422;BME280;62856;51.446;8.360;2022-11-20T06:06:14;97337.97;;;0.89;67.24
74422;BME280;62856;51.446;8.360;2022-11-20T06:08:40;97330.88;;;0.94;67.19
74422;BME280;62856;51.446;8.360;2022-11-20T06:11:07;97334.56;;;0.93;67.24
74422;BME280;62856;51.446;8.360;2022-11-20T06:13:33;97329.59;;;0.97;66.67
74422;BME280;62856;51.446;8.360;2022-11-20T06:15:59;97327.03;;;0.85;69.59
74422;BME280;62856;51.446;8.360;2022-11-20T06:18:28;97327.81;;;0.86;69.36
74422;BME280;62856;51.446;8.360;2022-11-20T06:21:02;97327.97;;;0.79;71.50
74422;BME280;62856;51.446;8.360;2022-11-20T06:23:31;97335.06;;;0.90;68.90
74422;BME280;62856;51.446;8.360;2022-11-20T06:26:00;97335.69;;;0.97;68.41
74422;BME280;62856;51.446;8.360;2022-11-20T06:28:26;97338.75;;;1.06;67.80
74422;BME280;62856;51.446;8.360;2022-11-20T06:30:51;97342.94;;;1.02;69.34
74422;BME280;62856;51.446;8.360;2022-11-20T06:33:16;97339.00;;;1.04;68.77
74422;BME280;62856;51.446;8.360;2022-11-20T06:35:41;97341.47;;;1.11;67.62
74422;BME280;62856;51.446;8.360;2022-11-20T06:38:07;97329.59;;;1.14;67.85
74422;BME280;62856;51.446;8.360;2022-11-20T06:40:32;97330.72;;;1.18;66.90
74422;BME280;62856;51.446;8.360;2022-11-20T06:42:57;97334.50;;;1.22;67.06
74422;BME280;62856;51.446;8.360;2022-11-20T06:45:22;97338.50;;;1.24;67.55
74422;BME280;62856;51.446;8.360;2022-11-20T06:47:48;97338.69;;;1.18;69.07
74422;BME280;62856;51.446;8.360;2022-11-20T06:50:13;97328.78;;;1.13;72.15
74422;BME280;62856;51.446;8.360;2022-11-20T06:52:38;97325.50;;;1.06;71.68
74422;BME280;62856;51.446;8.360;2022-11-20T06:55:04;97341.16;;;1.08;71.54
74422;BME280;62856;51.446;8.360;2022-11-20T06:57:29;97335.53;;;1.04;73.38
74422;BME280;62856;51.446;8.360;2022-11-20T06:59:54;97341.91;;;1.03;72.93
74422;BME280;62856;51.446;8.360;2022-11-20T07:02:20;97338.63;;;1.13;71.47
74422;BME280;62856;51.446;8.360;2022-11-20T07:04:45;97335.78;;;1.19;70.84
74422;BME280;62856;51.446;8.360;2022-11-20T07:07:10;97331.38;;;1.25;69.72
74422;BME280;62856;51.446;8.360;2022-11-20T07:09:35;97342.06;;;1.30;69.48
74422;BME280;62856;51.446;8.360;2022-11-20T07:12:01;97350.34;;;1.33;69.56
74422;BME280;62856;51.446;8.360;2022-11-20T07:14:26;97342.56;;;1.27;69.72
74422;BME280;62856;51.446;8.360;2022-11-20T07:16:51;97349.63;;;1.38;69.83
74422;BME280;62856;51.446;8.360;2022-11-20T07:19:16;97349.06;;;1.36;69.43
74422;BME280;62856;51.446;8.360;2022-11-20T07:21:42;97353.63;;;1.40;69.15
74422;BME280;62856;51.446;8.360;2022-11-20T07:24:07;97355.56;;;1.45;69.40
74422;BME280;62856;51.446;8.360;2022-11-20T07:26:32;97353.06;;;1.38;71.89
74422;BME280;62856;51.446;8.360;2022-11-20T07:28:57;97360.63;;;1.13;75.08
74422;BME280;62856;51.446;8.360;2022-11-20T07:31:23;97354.03;;;1.16;76.78
74422;BME280;62856;51.446;8.360;2022-11-20T07:33:48;97362.56;;;1.18;75.21
74422;BME280;62856;51.446;8.360;2022-11-20T07:36:13;97351.00;;;1.24;73.12
74422;BME280;62856;51.446;8.360;2022-11-20T07:38:39;97352.75;;;1.35;72.61
74422;BME280;62856;51.446;8.360;2022-11-20T07:41:04;97357.66;;;1.43;71.94
74422;BME280;62856;51.446;8.360;2022-11-20T07:43:30;97351.63;;;1.47;71.65
74422;BME280;62856;51.446;8.360;2022-11-20T07:45:56;97334.47;;;1.38;70.95
74422;BME280;62856;51.446;8.360;2022-11-20T07:48:22;97361.03;;;1.55;70.74
74422;BME280;62856;51.446;8.360;2022-11-20T07:50:47;97353.38;;;1.58;69.74
74422;BME280;62856;51.446;8.360;2022-11-20T07:53:12;97355.81;;;1.60;69.81
74422;BME280;62856;51.446;8.360;2022-11-20T07:55:38;97360.06;;;1.61;69.67
74422;BME280;62856;51.446;8.360;2022-11-20T07:58:04;97368.09;;;1.66;69.87
74422;BME280;62856;51.446;8.360;2022-11-20T08:00:29;97356.03;;;1.58;71.02
74422;BME280;62856;51.446;8.360;2022-11-20T08:02:54;97369.72;;;1.67;71.37
74422;BME280;62856;51.446;8.360;2022-11-20T08:05:20;97364.97;;;1.69;70.59
74422;BME280;62856;51.446;8.360;2022-11-20T08:07:45;97366.06;;;1.73;70.37
74422;BME280;62856;51.446;8.360;2022-11-20T08:10:13;97366.63;;;1.75;70.18
74422;BME280;62856;51.446;8.360;2022-11-20T08:12:46;97370.91;;;1.76;71.26
74422;BME280;62856;51.446;8.360;2022-11-20T08:15:30;97358.66;;;1.75;70.76
74422;BME280;62856;51.446;8.360;2022-11-20T08:18:08;97366.16;;;1.78;71.23
74422;BME280;62856;51.446;8.360;2022-11-20T08:20:34;97366.75;;;1.63;73.80
74422;BME280;62856;51.446;8.360;2022-11-20T08:23:01;97355.31;;;1.46;77.07
74422;BME280;62856;51.446;8.360;2022-11-20T08:25:28;97334.41;;;1.33;76.31
74422;BME280;62856;51.446;8.360;2022-11-20T08:27:53;97369.97;;;1.49;76.95
74422;BME280;62856;51.446;8.360;2022-11-20T08:30:18;97372.22;;;1.57;75.67
74422;BME280;62856;51.446;8.360;2022-11-20T08:32:44;97370.84;;;1.54;77.72
74422;BME280;62856;51.446;8.360;2022-11-20T08:35:09;97358.53;;;1.48;78.11
74422;BME280;62856;51.446;8.360;2022-11-20T08:37:34;97368.19;;;1.54;77.49
74422;BME280;62856;51.446;8.360;2022-11-20T08:39:59;97367.38;;;1.54;79.74
74422;BME280;62856;51.446;8.360;2022-11-20T08:42:25;97365.88;;;1.58;79.66
74422;BME280;62856;51.446;8.360;2022-11-20T08:44:50;97368.34;;;1.64;77.71
74422;BME280;62856;51.446;8.360;2022-11-20T08:47:15;97370.34;;;1.74;75.91
74422;BME280;62856;51.446;8.360;2022-11-20T08:49:40;97372.03;;;1.80;76.00
74422;BME280;62856;51.446;8.360;2022-11-20T08:52:06;97371.59;;;1.88;75.24
74422;BME280;62856;51.446;8.360;2022-11-20T08:54:31;97376.41;;;1.91;74.99
74422;BME280;62856;51.446;8.360;2022-11-20T08:56:56;97380.19;;;1.95;74.07
74422;BME280;62856;51.446;8.360;2022-11-20T08:59:21;97377.06;;;1.98;73.75
74422;BME280;62856;51.446;8.360;2022-11-20T09:01:47;97369.88;;;1.98;73.65
74422;BME280;62856;51.446;8.360;2022-11-20T09:04:12;97377.63;;;2.00;73.75
74422;BME280;62856;51.446;8.360;2022-11-20T09:06:39;97373.66;;;2.02;73.63
74422;BME280;62856;51.446;8.360;2022-11-20T09:09:05;97376.63;;;2.06;74.12
74422;BME280;62856;51.446;8.360;2022-11-20T09:11:31;97373.97;;;2.06;73.89
74422;BME280;62856;51.446;8.360;2022-11-20T09:13:56;97380.41;;;2.10;73.89
74422;BME280;62856;51.446;8.360;2022-11-20T09:16:21;97380.41;;;2.10;74.31
74422;BME280;62856;51.446;8.360;2022-11-20T09:18:49;97366.31;;;2.09;74.41
74422;BME280;62856;51.446;8.360;2022-11-20T09:21:15;97370.66;;;2.16;73.91
74422;BME280;62856;51.446;8.360;2022-11-20T09:23:41;97367.72;;;2.17;74.18
74422;BME280;62856;51.446;8.360;2022-11-20T09:26:11;97372.53;;;2.20;74.04
74422;BME280;62856;51.446;8.360;2022-11-20T09:28:38;97366.75;;;2.23;74.39
74422;BME280;62856;51.446;8.360;2022-11-20T09:31:08;97371.81;;;2.25;74.35
74422;BME280;62856;51.446;8.360;2022-11-20T09:33:34;97340.03;;;2.13;74.12
74422;BME280;62856;51.446;8.360;2022-11-20T09:36:00;97368.19;;;2.31;74.57
74422;BME280;62856;51.446;8.360;2022-11-20T09:38:25;97372.19;;;2.33;74.77
74422;BME280;62856;51.446;8.360;2022-11-20T09:40:56;97372.50;;;2.37;73.89
74422;BME280;62856;51.446;8.360;2022-11-20T09:54:16;97370.78;;;2.47;74.18
74422;BME280;62856;51.446;8.360;2022-11-20T09:56:45;97372.13;;;2.50;73.58
74422;BME280;62856;51.446;8.360;2022-11-20T09:59:27;97364.94;;;2.50;73.34
74422;BME280;62856;51.446;8.360;2022-11-20T10:01:55;97367.09;;;2.53;73.56
74422;BME280;62856;51.446;8.360;2022-11-20T10:04:21;97360.19;;;2.52;73.59
74422;BME280;62856;51.446;8.360;2022-11-20T10:09:53;97349.09;;;2.60;72.60
74422;BME280;62856;51.446;8.360;2022-11-20T10:12:54;97351.81;;;2.65;72.49
74422;BME280;62856;51.446;8.360;2022-11-20T10:15:33;97344.13;;;2.69;72.30
74422;BME280;62856;51.446;8.360;2022-11-20T10:18:11;97343.38;;;2.73;72.20
74422;BME280;62856;51.446;8.360;2022-11-20T10:30:07;97318.72;;;2.83;72.01
74422;BME280;62856;51.446;8.360;2022-11-20T10:32:38;97319.28;;;2.85;71.57
74422;BME280;62856;51.446;8.360;2022-11-20T10:35:18;97310.53;;;2.89;71.69
74422;BME280;62856;51.446;8.360;2022-11-20T10:37:49;97308.69;;;2.90;71.76
74422;BME280;62856;51.446;8.360;2022-11-20T10:40:34;97324.94;;;2.93;71.54
74422;BME280;62856;51.446;8.360;2022-11-20T10:43:21;97322.03;;;2.95;72.44
74422;BME280;62856;51.446;8.360;2022-11-20T10:46:03;97317.50;;;2.95;71.24
74422;BME280;62856;51.446;8.360;2022-11-20T10:48:31;97319.16;;;3.01;71.53
74422;BME280;62856;51.446;8.360;2022-11-20T10:51:18;97310.66;;;3.04;71.70
74422;BME280;62856;51.446;8.360;2022-11-20T10:56:50;97298.19;;;3.10;71.37
74422;BME280;62856;51.446;8.360;2022-11-20T10:59:45;97302.22;;;3.13;71.44
74422;BME280;62856;51.446;8.360;2022-11-20T11:02:20;97304.91;;;3.18;71.79
74422;BME280;62856;51.446;8.360;2022-11-20T11:04:47;97304.41;;;3.21;72.03
74422;BME280;62856;51.446;8.360;2022-11-20T11:09:43;97308.72;;;3.27;71.81
74422;BME280;62856;51.446;8.360;2022-11-20T11:12:09;97307.38;;;3.29;71.41
74422;BME280;62856;51.446;8.360;2022-11-20T11:14:47;97291.94;;;3.31;71.88
74422;BME280;62856;51.446;8.360;2022-11-20T11:17:30;97289.84;;;3.33;71.70
74422;BME280;62856;51.446;8.360;2022-11-20T11:22:24;97289.09;;;3.38;71.99
74422;BME280;62856;51.446;8.360;2022-11-20T11:24:53;97296.28;;;3.42;72.13
74422;BME280;62856;51.446;8.360;2022-11-20T11:27:18;97283.78;;;3.43;71.39
74422;BME280;62856;51.446;8.360;2022-11-20T11:29:44;97282.47;;;3.45;70.89
74422;BME280;62856;51.446;8.360;2022-11-20T11:32:19;97272.88;;;3.44;70.91
74422;BME280;62856;51.446;8.360;2022-11-20T11:34:59;97281.44;;;3.51;70.85
74422;BME280;62856;51.446;8.360;2022-11-20T11:37:29;97273.44;;;3.51;70.42
74422;BME280;62856;51.446;8.360;2022-11-20T11:39:57;97281.16;;;3.53;70.11
74422;BME280;62856;51.446;8.360;2022-11-20T11:42:23;97277.47;;;3.54;70.61
74422;BME280;62856;51.446;8.360;2022-11-20T11:44:48;97258.75;;;3.44;69.84
74422;BME280;62856;51.446;8.360;2022-11-20T11:47:45;97262.84;;;3.56;70.23
74422;BME280;62856;51.446;8.360;2022-11-20T11:52:43;97279.13;;;3.65;70.11
74422;BME280;62856;51.446;8.360;2022-11-20T11:55:14;97276.75;;;3.68;69.45
74422;BME280;62856;51.446;8.360;2022-11-20T11:58:21;97269.56;;;3.69;69.40
74422;BME280;62856;51.446;8.360;2022-11-20T12:01:04;97268.50;;;3.70;69.33
74422;BME280;62856;51.446;8.360;2022-11-20T12:03:37;97273.00;;;3.69;69.00
74422;BME280;62856;51.446;8.360;2022-11-20T12:06:10;97265.81;;;3.70;68.67
74422;BME280;62856;51.446;8.360;2022-11-20T12:11:35;97255.72;;;3.72;69.52
74422;BME280;62856;51.446;8.360;2022-11-20T12:14:16;97256.00;;;3.75;68.83
74422;BME280;62856;51.446;8.360;2022-11-20T12:16:45;97251.75;;;3.74;68.81
74422;BME280;62856;51.446;8.360;2022-11-20T12:19:12;97246.41;;;3.79;68.92
74422;BME280;62856;51.446;8.360;2022-11-20T12:21:56;97242.41;;;3.82;69.31
74422;BME280;62856;51.446;8.360;2022-11-20T12:35:10;97230.72;;;3.88;69.31
74422;BME280;62856;51.446;8.360;2022-11-20T12:46:10;97228.88;;;3.98;68.39
74422;BME280;62856;51.446;8.360;2022-11-20T12:48:55;97218.75;;;4.00;68.30
74422;BME280;62856;51.446;8.360;2022-11-20T13:05:20;97194.00;;;4.05;67.73
74422;BME280;62856;51.446;8.360;2022-11-20T13:07:47;97200.09;;;4.05;68.16
74422;BME280;62856;51.446;8.360;2022-11-20T13:10:38;97191.06;;;4.06;68.05
74422;BME280;62856;51.446;8.360;2022-11-20T13:15:48;97195.06;;;4.09;68.01
74422;BME280;62856;51.446;8.360;2022-11-20T13:18:17;97191.06;;;4.06;68.21
74422;BME280;62856;51.446;8.360;2022-11-20T13:20:44;97189.75;;;4.09;67.79
74422;BME280;62856;51.446;8.360;2022-11-20T13:23:10;97184.94;;;4.11;67.93
74422;BME280;62856;51.446;8.360;2022-11-20T13:25:39;97180.13;;;4.13;68.05
74422;BME280;62856;51.446;8.360;2022-11-20T13:30:47;97168.69;;;4.12;67.88
74422;BME280;62856;51.446;8.360;2022-11-20T13:33:27;97171.31;;;4.02;68.95
74422;BME280;62856;51.446;8.360;2022-11-20T13:38:21;97160.66;;;4.02;68.95
74422;BME280;62856;51.446;8.360;2022-11-20T13:46:02;97146.22;;;3.88;70.66
74422;BME280;62856;51.446;8.360;2022-11-20T13:48:33;97152.66;;;3.92;70.28
74422;BME280;62856;51.446;8.360;2022-11-20T13:53:55;97127.03;;;3.91;70.56
74422;BME280;62856;51.446;8.360;2022-11-20T13:56:59;97129.47;;;3.98;69.38
74422;BME280;62856;51.446;8.360;2022-11-20T13:59:36;97120.38;;;3.94;69.74
74422;BME280;62856;51.446;8.360;2022-11-20T14:02:10;97121.47;;;3.98;69.70
74422;BME280;62856;51.446;8.360;2022-11-20T14:04:45;97121.19;;;4.04;69.54
74422;BME280;62856;51.446;8.360;2022-11-20T14:07:11;97116.41;;;4.06;69.54
74422;BME280;62856;51.446;8.360;2022-11-20T14:09:37;97109.44;;;4.05;69.65
74422;BME280;62856;51.446;8.360;2022-11-20T14:12:03;97099.59;;;4.06;68.97
74422;BME280;62856;51.446;8.360;2022-11-20T14:14:47;97094.53;;;4.14;69.11
74422;BME280;62856;51.446;8.360;2022-11-20T14:17:39;97088.94;;;4.16;69.18
74422;BME280;62856;51.446;8.360;2022-11-20T14:20:06;97092.66;;;4.15;70.22
74422;BME280;62856;51.446;8.360;2022-11-20T14:22:36;97075.59;;;4.11;70.35
74422;BME280;62856;51.446;8.360;2022-11-20T14:27:45;97094.53;;;4.09;71.78
74422;BME280;62856;51.446;8.360;2022-11-20T14:30:17;97099.63;;;4.16;71.82
74422;BME280;62856;51.446;8.360;2022-11-20T14:32:44;97090.81;;;4.10;72.74
74422;BME280;62856;51.446;8.360;2022-11-20T14:35:16;97089.47;;;4.08;74.26
74422;BME280;62856;51.446;8.360;2022-11-20T14:37:44;97086.53;;;4.14;72.54
74422;BME280;62856;51.446;8.360;2022-11-20T14:42:47;97073.75;;;4.22;70.87
74422;BME280;62856;51.446;8.360;2022-11-20T14:45:13;97073.47;;;4.23;72.41
74422;BME280;62856;51.446;8.360;2022-11-20T14:47:40;97070.81;;;4.23;72.01
74422;BME280;62856;51.446;8.360;2022-11-20T14:50:13;97069.19;;;4.22;72.01
74422;BME280;62856;51.446;8.360;2022-11-20T14:52:50;97065.19;;;4.25;71.85
74422;BME280;62856;51.446;8.360;2022-11-20T14:55:53;97045.72;;;4.24;72.22
74422;BME280;62856;51.446;8.360;2022-11-20T14:58:25;97046.53;;;4.20;72.33